createdAt,value
2018-06-05T00:00:10.586Z,78.81
2018-06-05T00:02:45.391Z,79.81
2018-06-05T00:05:20.149Z,80.10
2018-06-05T00:07:54.900Z,80.28
2018-06-05T00:10:30.137Z,79.88
2018-06-05T00:13:05.253Z,80.03
2018-06-05T00:15:39.667Z,79.56
2018-06-05T00:18:14.503Z,79.67
2018-06-05T00:20:49.128Z,79.36
2018-06-05T00:23:23.957Z,79.76
2018-06-05T00:25:59.285Z,79.55
2018-06-05T00:28:34.182Z,79.70
2018-06-05T00:31:09.208Z,79.69
2018-06-05T00:33:43.492Z,79.63
2018-06-05T00:36:18.411Z,80.16
2018-06-05T00:38:53.255Z,80.02
2018-06-05T00:41:28.614Z,80.22
2018-06-05T00:44:04.439Z,79.40
2018-06-05T00:46:39.497Z,80.27
2018-06-05T00:49:14.430Z,80.32
2018-06-05T00:52:00.615Z,80.28
2018-06-05T00:54:35.355Z,80.61
2018-06-05T00:57:10.111Z,79.75
2018-06-05T00:59:44.971Z,79.73
2018-06-05T01:02:20.396Z,79.57
2018-06-05T01:04:55.233Z,79.98
2018-06-05T01:07:29.616Z,80.49
2018-06-05T01:10:05.197Z,80.27
2018-06-05T01:12:40.159Z,80.63
2018-06-05T01:15:15.060Z,80.60
2018-06-05T01:17:49.565Z,80.44
2018-06-05T01:20:24.496Z,80.30
2018-06-05T01:22:59.369Z,80.29
2018-06-05T01:25:34.669Z,79.85
2018-06-05T01:28:09.374Z,80.70
2018-06-05T01:30:44.533Z,80.86
2018-06-05T01:33:19.074Z,80.73
2018-06-05T01:35:54.306Z,80.67
2018-06-05T01:38:28.789Z,80.49
2018-06-05T01:41:03.839Z,80.41
2018-06-05T01:43:38.544Z,80.38
2018-06-05T01:46:13.323Z,80.79
2018-06-05T01:48:48.575Z,81.04
2018-06-05T01:51:23.111Z,80.40
2018-06-05T01:53:58.110Z,80.55
2018-06-05T01:56:33.042Z,80.71
2018-06-05T01:59:07.914Z,80.29
2018-06-05T02:01:42.753Z,80.50
2018-06-05T02:04:17.473Z,79.81
2018-06-05T02:06:52.381Z,80.43
2018-06-05T02:09:27.115Z,80.05
2018-06-05T02:12:02.463Z,80.00
2018-06-05T02:14:37.286Z,79.50
2018-06-05T02:17:12.281Z,80.11
2018-06-05T02:19:47.025Z,79.76
2018-06-05T02:22:22.270Z,80.06
2018-06-05T02:24:56.999Z,80.14
2018-06-05T02:27:31.905Z,80.69
2018-06-05T02:30:07.076Z,80.08
2018-06-05T02:32:41.698Z,79.72
2018-06-05T02:35:16.314Z,79.49
2018-06-05T02:37:51.231Z,79.89
2018-06-05T02:40:26.462Z,79.84
2018-06-05T02:43:01.433Z,79.32
2018-06-05T02:45:36.501Z,80.16
2018-06-05T02:48:11.261Z,79.51
2018-06-05T02:50:46.642Z,80.08
2018-06-05T02:53:21.575Z,80.26
2018-06-05T02:55:57.008Z,79.88
2018-06-05T02:58:31.994Z,80.12
2018-06-05T03:01:07.117Z,80.63
2018-06-05T03:03:41.753Z,79.69
2018-06-05T03:06:16.540Z,79.49
2018-06-05T03:08:51.929Z,79.62
2018-06-05T03:11:26.814Z,79.33
2018-06-05T03:14:01.762Z,79.85
2018-06-05T03:16:36.569Z,79.86
2018-06-05T03:19:11.540Z,80.31
2018-06-05T03:21:46.826Z,79.75
2018-06-05T03:24:21.453Z,80.06
2018-06-05T03:26:56.233Z,79.77
2018-06-05T03:29:31.362Z,79.92
2018-06-05T03:32:06.211Z,80.50
2018-06-05T03:34:40.936Z,80.79
2018-06-05T03:37:15.610Z,80.95
2018-06-05T03:39:50.459Z,81.33
2018-06-05T03:42:24.997Z,81.37
2018-06-05T03:44:59.712Z,80.29
2018-06-05T03:47:34.882Z,80.72
2018-06-05T03:50:09.726Z,80.76
2018-06-05T03:52:44.268Z,80.49
2018-06-05T03:55:18.852Z,80.88
2018-06-05T03:57:53.124Z,79.84
2018-06-05T04:00:28.821Z,80.16
2018-06-05T04:03:03.284Z,80.28
2018-06-05T04:05:38.637Z,80.98
2018-06-05T04:08:13.614Z,80.90
2018-06-05T04:10:48.599Z,81.58
2018-06-05T04:13:24.225Z,81.39
2018-06-05T04:15:58.729Z,81.53
2018-06-05T04:18:33.758Z,81.39
2018-06-05T04:21:09.192Z,81.50
2018-06-05T04:23:44.550Z,80.98
2018-06-05T04:26:19.489Z,81.48
2018-06-05T04:28:54.252Z,80.93
2018-06-05T04:31:29.430Z,81.12
2018-06-05T04:34:04.431Z,81.14
2018-06-05T04:36:39.772Z,81.11
2018-06-05T04:39:14.832Z,80.47
2018-06-05T04:41:49.678Z,80.69
2018-06-05T04:44:24.489Z,81.17
2018-06-05T04:46:59.484Z,81.24
2018-06-05T04:49:34.830Z,81.38
2018-06-05T04:52:10.100Z,81.27
2018-06-05T04:54:45.595Z,81.74
2018-06-05T04:57:20.878Z,81.29
2018-06-05T04:59:55.717Z,81.77
2018-06-05T05:02:30.411Z,81.22
2018-06-05T05:05:05.769Z,80.95
2018-06-05T05:07:40.689Z,81.72
2018-06-05T05:10:15.933Z,80.69
2018-06-05T05:12:50.953Z,80.64
2018-06-05T05:15:25.922Z,81.11
2018-06-05T05:18:00.945Z,80.90
2018-06-05T05:20:35.415Z,80.45
2018-06-05T05:23:10.289Z,81.14
2018-06-05T05:25:44.895Z,80.11
2018-06-05T05:28:19.848Z,79.99
2018-06-05T05:30:54.699Z,80.50
2018-06-05T05:33:29.034Z,80.96
2018-06-05T05:36:04.149Z,81.12
2018-06-05T05:38:38.921Z,80.51
2018-06-05T05:41:14.174Z,81.41
2018-06-05T05:43:49.167Z,81.19
2018-06-05T05:46:24.246Z,81.38
2018-06-05T05:48:58.845Z,80.81
2018-06-05T05:51:34.148Z,80.27
2018-06-05T05:54:08.694Z,80.49
2018-06-05T05:56:43.853Z,80.40
2018-06-05T05:59:18.341Z,81.20
2018-06-05T06:01:53.677Z,81.22
2018-06-05T06:04:28.465Z,80.81
2018-06-05T06:07:03.362Z,81.30
2018-06-05T06:09:37.778Z,80.08
2018-06-05T06:12:12.590Z,80.24
2018-06-05T06:14:47.449Z,80.26
2018-06-05T06:17:22.190Z,80.69
2018-06-05T06:19:57.285Z,81.25
2018-06-05T06:22:32.729Z,81.41
2018-06-05T06:25:07.967Z,81.64
2018-06-05T06:27:42.787Z,81.50
2018-06-05T06:30:17.885Z,81.17
2018-06-05T06:32:52.905Z,81.39
2018-06-05T06:35:27.773Z,81.83
2018-06-05T06:38:02.727Z,82.00
2018-06-05T06:40:38.175Z,82.29
2018-06-05T06:43:13.134Z,82.35
2018-06-05T06:45:47.845Z,83.31
2018-06-05T06:48:23.243Z,83.14
2018-06-05T06:50:58.081Z,83.02
2018-06-05T06:53:33.289Z,83.49
2018-06-05T06:56:07.784Z,83.49
2018-06-05T06:58:42.745Z,83.87
2018-06-05T07:01:17.990Z,84.87
2018-06-05T07:03:53.204Z,84.51
2018-06-05T07:06:28.822Z,84.76
2018-06-05T07:09:03.399Z,85.09
2018-06-05T07:11:37.905Z,85.64
2018-06-05T07:14:13.050Z,85.06
2018-06-05T07:16:47.650Z,85.21
2018-06-05T07:19:22.797Z,85.53
2018-06-05T07:21:57.504Z,85.45
2018-06-05T07:24:32.217Z,84.93
2018-06-05T07:27:07.081Z,84.02
2018-06-05T07:29:41.598Z,83.90
2018-06-05T07:32:16.466Z,83.35
2018-06-05T07:34:51.138Z,84.01
2018-06-05T07:37:25.441Z,84.23
2018-06-05T07:40:00.103Z,84.23
2018-06-05T07:42:34.945Z,83.99
2018-06-05T07:45:10.434Z,84.33
2018-06-05T07:47:45.878Z,84.51
2018-06-05T07:50:21.154Z,83.56
2018-06-05T07:52:55.838Z,83.73
2018-06-05T07:55:31.305Z,83.70
2018-06-05T07:58:06.597Z,83.84
2018-06-05T08:00:41.542Z,83.83
2018-06-05T08:03:16.149Z,83.25
2018-06-05T08:05:50.890Z,83.92
2018-06-05T08:08:25.681Z,84.54
2018-06-05T08:11:00.510Z,84.52
2018-06-05T08:13:35.038Z,85.09
2018-06-05T08:16:10.222Z,85.19
2018-06-05T08:18:45.660Z,84.80
2018-06-05T08:21:20.325Z,85.10
2018-06-05T08:23:55.641Z,85.04
2018-06-05T08:27:07.485Z,84.89
2018-06-05T08:29:42.668Z,84.40
2018-06-05T08:32:17.828Z,85.08
2018-06-05T08:34:53.097Z,84.53
2018-06-05T08:37:28.185Z,84.03
2018-06-05T08:40:03.320Z,84.18
2018-06-05T08:42:37.574Z,83.75
2018-06-05T08:45:12.130Z,83.56
2018-06-05T08:47:47.397Z,83.80
2018-06-05T08:50:22.912Z,83.81
2018-06-05T08:52:57.817Z,83.21
2018-06-05T08:55:33.186Z,83.03
2018-06-05T08:58:08.434Z,82.89
2018-06-05T09:00:42.953Z,83.31
2018-06-05T09:03:17.538Z,82.42
2018-06-05T09:05:52.122Z,82.30
2018-06-05T09:08:27.318Z,82.45
2018-06-05T09:11:02.309Z,82.42
2018-06-05T09:13:37.489Z,81.85
2018-06-05T09:16:12.860Z,82.32
2018-06-05T09:18:47.692Z,81.59
2018-06-05T09:21:22.813Z,80.82
2018-06-05T09:23:57.501Z,81.37
2018-06-05T09:26:32.318Z,81.40
2018-06-05T09:29:07.438Z,81.35
2018-06-05T09:31:42.065Z,81.36
2018-06-05T09:34:16.936Z,80.59
2018-06-05T09:36:52.040Z,80.58
2018-06-05T09:39:26.995Z,79.88
2018-06-05T09:42:01.504Z,79.35
2018-06-05T09:44:37.293Z,79.15
2018-06-05T09:47:12.597Z,78.69
2018-06-05T09:49:47.226Z,78.06
2018-06-05T09:52:23.985Z,78.03
2018-06-05T09:54:59.070Z,77.88
2018-06-05T09:57:34.192Z,77.12
2018-06-05T10:00:09.561Z,76.36
2018-06-05T10:02:44.405Z,76.42
2018-06-05T10:05:19.505Z,76.00
2018-06-05T10:07:54.838Z,76.06
2018-06-05T10:10:29.639Z,74.92
2018-06-05T10:13:04.414Z,75.49
2018-06-05T10:15:39.609Z,75.24
2018-06-05T10:18:14.150Z,75.54
2018-06-05T10:20:48.378Z,75.89
2018-06-05T10:23:22.921Z,75.71
2018-06-05T10:25:57.538Z,75.12
2018-06-05T10:28:32.469Z,74.66
2018-06-05T10:31:07.814Z,73.66
2018-06-05T10:33:42.334Z,72.98
2018-06-05T10:36:17.790Z,72.49
2018-06-05T10:38:52.710Z,72.49
2018-06-05T10:41:27.946Z,72.80
2018-06-05T10:44:02.996Z,73.74
2018-06-05T10:46:37.753Z,73.12
2018-06-05T10:49:12.853Z,71.10
2018-06-05T10:51:47.705Z,70.74
2018-06-05T10:54:22.485Z,70.86
2018-06-05T10:56:57.197Z,71.11
2018-06-05T10:59:32.022Z,71.42
2018-06-05T11:02:06.825Z,69.77
2018-06-05T11:04:41.328Z,69.04
2018-06-05T11:07:15.922Z,67.47
2018-06-05T11:09:50.961Z,67.32
2018-06-05T11:12:25.768Z,67.16
2018-06-05T11:15:00.267Z,67.63
2018-06-05T11:17:35.457Z,65.80
2018-06-05T11:20:10.454Z,66.07
2018-06-05T11:22:45.455Z,65.82
2018-06-05T11:25:20.165Z,65.83
2018-06-05T11:27:54.989Z,65.57
2018-06-05T11:30:30.438Z,61.54
2018-06-05T11:33:05.586Z,59.90
2018-06-05T11:35:40.196Z,60.25
2018-06-05T11:38:15.360Z,60.76
2018-06-05T11:40:50.510Z,59.06
2018-06-05T11:43:25.356Z,55.87
2018-06-05T11:46:00.376Z,56.03
2018-06-05T11:48:35.725Z,57.33
2018-06-05T11:51:10.362Z,58.46
2018-06-05T11:53:45.721Z,56.28
2018-06-05T11:56:20.889Z,55.95
2018-06-05T11:58:55.607Z,55.50
2018-06-05T12:01:30.553Z,55.27
2018-06-05T12:04:05.284Z,54.49
2018-06-05T12:06:39.799Z,54.29
2018-06-05T12:09:14.603Z,55.26
2018-06-05T12:11:49.606Z,53.97
2018-06-05T12:14:24.485Z,54.94
2018-06-05T12:17:00.150Z,55.01
2018-06-05T12:19:34.786Z,55.86
2018-06-05T12:22:10.290Z,56.42
2018-06-05T12:24:45.372Z,56.08
2018-06-05T12:27:20.034Z,54.56
2018-06-05T12:29:55.061Z,53.20
2018-06-05T12:32:29.784Z,51.08
2018-06-05T12:35:05.109Z,51.17
2018-06-05T12:37:39.740Z,50.20
2018-06-05T12:40:14.852Z,48.47
2018-06-05T12:42:50.431Z,48.25
2018-06-05T12:45:25.797Z,48.55
2018-06-05T12:48:00.800Z,49.11
2018-06-05T12:50:35.924Z,49.80
2018-06-05T12:53:11.030Z,48.38
2018-06-05T12:55:45.918Z,47.87
2018-06-05T12:58:20.583Z,48.25
2018-06-05T13:00:55.829Z,47.35
2018-06-05T13:03:31.321Z,47.65
2018-06-05T13:06:06.145Z,45.83
2018-06-05T13:08:41.089Z,46.48
2018-06-05T13:11:16.366Z,47.56
2018-06-05T13:13:51.022Z,46.59
2018-06-05T13:16:26.317Z,47.14
2018-06-05T13:19:01.237Z,48.54
2018-06-05T13:21:36.202Z,48.17
2018-06-05T13:24:11.327Z,45.68
2018-06-05T13:26:46.325Z,47.63
2018-06-05T13:29:21.324Z,48.52
2018-06-05T13:31:55.821Z,47.86
2018-06-05T13:34:30.565Z,47.13
2018-06-05T13:37:05.692Z,48.22
2018-06-05T13:39:40.837Z,48.71
2018-06-05T13:42:15.457Z,47.54
2018-06-05T13:44:50.152Z,47.26
2018-06-05T13:47:24.691Z,48.88
2018-06-05T13:49:59.710Z,46.28
2018-06-05T13:52:34.594Z,45.36
2018-06-05T13:55:10.162Z,46.81
2018-06-05T13:57:45.120Z,47.34
2018-06-05T14:00:20.022Z,46.87
2018-06-05T14:02:54.609Z,46.38
2018-06-05T14:05:29.830Z,45.95
2018-06-05T14:08:04.766Z,47.18
2018-06-05T14:10:40.038Z,46.22
2018-06-05T14:13:14.885Z,46.27
2018-06-05T14:15:49.909Z,44.94
2018-06-05T14:18:25.530Z,44.49
2018-06-05T14:21:00.018Z,44.50
2018-06-05T14:23:35.226Z,45.74
2018-06-05T14:26:09.991Z,45.14
2018-06-05T14:28:44.645Z,46.47
2018-06-05T14:31:19.737Z,46.46
2018-06-05T14:33:54.670Z,45.24
2018-06-05T14:36:29.688Z,45.31
2018-06-05T14:39:08.037Z,46.04
2018-06-05T14:41:43.279Z,43.78
2018-06-05T14:44:18.373Z,43.47
2018-06-05T14:46:54.388Z,44.32
2018-06-05T14:49:29.405Z,42.74
2018-06-05T14:52:04.171Z,44.65
2018-06-05T14:54:38.878Z,44.55
2018-06-05T14:57:13.122Z,45.51
2018-06-05T14:59:48.186Z,44.77
2018-06-05T15:02:23.622Z,46.17
2018-06-05T15:04:58.339Z,45.31
2018-06-05T15:07:33.249Z,45.13
2018-06-05T15:10:08.201Z,44.82
2018-06-05T15:12:43.246Z,44.30
2018-06-05T15:15:18.177Z,45.04
2018-06-05T15:17:52.526Z,44.55
2018-06-05T15:20:27.561Z,42.27
2018-06-05T15:23:03.002Z,43.15
2018-06-05T15:25:37.784Z,43.88
2018-06-05T15:28:13.227Z,44.17
2018-06-05T15:30:48.141Z,43.13
2018-06-05T15:33:22.953Z,45.18
2018-06-05T15:35:57.900Z,44.13
2018-06-05T15:38:33.414Z,45.68
2018-06-05T15:41:08.177Z,45.83
2018-06-05T15:43:42.966Z,45.73
2018-06-05T15:46:17.905Z,45.13
2018-06-05T15:48:52.734Z,47.16
2018-06-05T15:51:27.218Z,45.28
2018-06-05T15:54:01.927Z,46.97
2018-06-05T15:56:36.831Z,46.69
2018-06-05T15:59:12.185Z,46.91
2018-06-05T16:01:47.070Z,47.18
2018-06-05T16:04:21.967Z,45.95
2018-06-05T16:06:57.102Z,45.68
2018-06-05T16:09:32.206Z,46.94
2018-06-05T16:12:07.319Z,46.41
2018-06-05T16:14:41.775Z,46.51
2018-06-05T16:17:17.128Z,45.90
2018-06-05T16:19:52.017Z,46.67
2018-06-05T16:22:27.298Z,46.30
2018-06-05T16:25:02.100Z,46.28
2018-06-05T16:27:37.885Z,46.67
2018-06-05T16:30:12.802Z,47.24
2018-06-05T16:32:47.379Z,46.36
2018-06-05T16:35:22.539Z,46.04
2018-06-05T16:37:57.242Z,46.48
2018-06-05T16:40:32.354Z,46.84
2018-06-05T16:43:06.863Z,47.22
2018-06-05T16:45:41.473Z,47.71
2018-06-05T16:48:16.904Z,48.15
2018-06-05T16:50:51.658Z,48.26
2018-06-05T16:53:26.890Z,47.92
2018-06-05T16:56:02.079Z,46.81
2018-06-05T16:58:37.526Z,47.08
2018-06-05T17:01:13.067Z,47.62
2018-06-05T17:03:47.409Z,48.34
2018-06-05T17:06:22.550Z,48.41
2018-06-05T17:08:57.075Z,48.91
2018-06-05T17:11:32.324Z,49.21
2018-06-05T17:14:07.598Z,48.98
2018-06-05T17:16:42.293Z,49.26
2018-06-05T17:19:17.442Z,48.91
2018-06-05T17:21:52.838Z,48.64
2018-06-05T17:24:27.663Z,48.26
2018-06-05T17:27:02.561Z,49.77
2018-06-05T17:29:37.640Z,49.47
2018-06-05T17:32:12.157Z,49.84
2018-06-05T17:34:47.353Z,50.54
2018-06-05T17:37:22.474Z,50.71
2018-06-05T17:39:57.217Z,49.61
2018-06-05T17:42:32.158Z,49.86
2018-06-05T17:45:07.308Z,50.33
2018-06-05T17:47:41.966Z,49.89
2018-06-05T17:50:16.642Z,50.47
2018-06-05T17:52:52.005Z,50.75
2018-06-05T17:55:26.953Z,51.15
2018-06-05T17:58:01.877Z,51.20
2018-06-05T18:00:36.598Z,51.70
2018-06-05T18:03:11.637Z,51.75
2018-06-05T18:05:46.638Z,51.22
2018-06-05T18:08:22.004Z,51.68
2018-06-05T18:10:57.054Z,52.31
2018-06-05T18:13:32.138Z,51.61
2018-06-05T18:16:07.657Z,52.18
2018-06-05T18:18:41.921Z,52.19
2018-06-05T18:21:17.374Z,52.32
2018-06-05T18:23:52.253Z,53.30
2018-06-05T18:26:26.965Z,52.98
2018-06-05T18:29:02.190Z,53.43
2018-06-05T18:31:36.689Z,53.29
2018-06-05T18:34:11.549Z,53.75
2018-06-05T18:36:46.676Z,54.84
2018-06-05T18:39:21.590Z,55.11
2018-06-05T18:41:56.285Z,54.65
2018-06-05T18:44:31.077Z,55.26
2018-06-05T18:47:05.916Z,54.84
2018-06-05T18:49:41.154Z,55.78
2018-06-05T18:52:15.758Z,55.52
2018-06-05T18:54:50.775Z,55.84
2018-06-05T18:57:25.670Z,56.66
2018-06-05T19:00:00.582Z,57.05
2018-06-05T19:02:35.474Z,57.16
2018-06-05T19:05:10.686Z,57.77
2018-06-05T19:07:45.378Z,57.66
2018-06-05T19:10:20.353Z,58.39
2018-06-05T19:12:55.707Z,58.76
2018-06-05T19:15:30.235Z,59.22
2018-06-05T19:18:04.827Z,60.03
2018-06-05T19:20:39.745Z,59.72
2018-06-05T19:23:14.848Z,60.64
2018-06-05T19:25:49.697Z,60.90
2018-06-05T19:28:24.506Z,60.95
2018-06-05T19:30:59.497Z,61.49
2018-06-05T19:33:34.312Z,61.72
2018-06-05T19:36:09.634Z,61.86
2018-06-05T19:38:44.823Z,61.56
2018-06-05T19:41:19.645Z,62.37
2018-06-05T19:43:54.385Z,61.91
2018-06-05T19:46:29.684Z,61.82
2018-06-05T19:49:04.349Z,62.05
2018-06-05T19:51:39.623Z,62.39
2018-06-05T19:54:14.701Z,63.21
2018-06-05T19:56:49.949Z,63.02
2018-06-05T19:59:24.979Z,63.16
2018-06-05T20:01:59.809Z,63.93
2018-06-05T20:04:34.680Z,63.60
2018-06-05T20:07:09.822Z,64.16
2018-06-05T20:09:44.765Z,63.81
2018-06-05T20:12:19.418Z,64.61
2018-06-05T20:14:54.257Z,64.21
2018-06-05T20:17:29.510Z,64.34
2018-06-05T20:20:04.458Z,64.67
2018-06-05T20:22:39.610Z,65.15
2018-06-05T20:25:14.549Z,64.73
2018-06-05T20:27:49.644Z,64.50
2018-06-05T20:30:24.324Z,65.40
2018-06-05T20:32:59.343Z,64.89
2018-06-05T20:35:34.686Z,65.66
2018-06-05T20:38:09.528Z,65.83
2018-06-05T20:40:44.417Z,65.98
2018-06-05T20:43:18.906Z,65.78
2018-06-05T20:45:54.126Z,66.50
2018-06-05T20:48:28.910Z,66.11
2018-06-05T20:51:03.746Z,66.35
2018-06-05T20:53:38.566Z,66.96
2018-06-05T20:56:13.210Z,66.88
2018-06-05T20:58:48.035Z,67.42
2018-06-05T21:01:22.851Z,67.98
2018-06-05T21:03:57.889Z,67.51
2018-06-05T21:06:33.161Z,68.44
2018-06-05T21:09:07.638Z,67.91
2018-06-05T21:11:42.928Z,68.13
2018-06-05T21:14:17.437Z,68.80
2018-06-05T21:16:52.673Z,69.66
2018-06-05T21:19:27.302Z,69.66
2018-06-05T21:22:01.923Z,70.14
2018-06-05T21:24:37.057Z,70.46
2018-06-05T21:27:11.790Z,70.80
2018-06-05T21:29:46.588Z,71.63
2018-06-05T21:32:21.241Z,71.27
2018-06-05T21:34:56.201Z,71.58
2018-06-05T21:37:31.016Z,72.08
2018-06-05T21:40:05.822Z,71.85
2018-06-05T21:42:40.962Z,72.32
2018-06-05T21:45:15.268Z,72.62
2018-06-05T21:47:50.342Z,72.72
2018-06-05T21:50:25.450Z,73.95
2018-06-05T21:52:59.994Z,73.64
2018-06-05T21:55:35.227Z,73.51
2018-06-05T21:58:09.440Z,73.87
2018-06-05T22:00:44.406Z,73.67
2018-06-05T22:03:19.552Z,73.66
2018-06-05T22:05:54.112Z,73.82
2018-06-05T22:08:28.600Z,74.17
2018-06-05T22:11:03.371Z,73.92
2018-06-05T22:13:38.054Z,73.97
2018-06-05T22:16:13.385Z,74.19
2018-06-05T22:18:47.933Z,74.57
2018-06-05T22:21:22.382Z,75.05
2018-06-05T22:23:57.191Z,75.49
2018-06-05T22:26:31.994Z,75.73
2018-06-05T22:29:06.752Z,75.76
2018-06-05T22:31:41.822Z,75.88
2018-06-05T22:34:16.764Z,75.83
2018-06-05T22:36:51.404Z,75.69
2018-06-05T22:39:26.055Z,76.09
2018-06-05T22:42:01.111Z,76.28
2018-06-05T22:44:35.786Z,76.59
2018-06-05T22:47:10.862Z,76.96
2018-06-05T22:49:45.910Z,76.89
2018-06-05T22:52:20.226Z,77.62
2018-06-05T22:54:55.728Z,77.81
2018-06-05T22:57:31.050Z,77.63
2018-06-05T23:00:06.256Z,77.58
2018-06-05T23:02:41.467Z,78.01
2018-06-05T23:05:16.359Z,77.61
2018-06-05T23:07:51.525Z,77.73
2018-06-05T23:13:08.731Z,78.69
2018-06-05T23:15:43.255Z,78.84
2018-06-05T23:18:18.314Z,78.42
2018-06-05T23:20:52.977Z,78.83
2018-06-05T23:23:27.877Z,78.98
2018-06-05T23:26:02.966Z,79.58
2018-06-05T23:28:37.906Z,79.71
2018-06-05T23:31:12.396Z,79.81
2018-06-05T23:33:47.653Z,79.87
2018-06-05T23:36:21.983Z,79.38
2018-06-05T23:38:56.893Z,79.65
2018-06-05T23:41:32.017Z,80.46
2018-06-05T23:44:06.586Z,79.98
2018-06-05T23:46:41.381Z,80.32
2018-06-05T23:49:16.306Z,80.89
2018-06-05T23:51:55.442Z,80.81
2018-06-05T23:54:30.204Z,80.76
2018-06-05T23:57:04.738Z,81.33
2018-06-05T23:59:39.885Z,81.39
